Tenney, Minnesota
Current Conditions -  °F | °C
As of 3:16 PM on Monday 22 Dec 2014 (Local Time) from KETH Reporting Station
Light Rain Light Rain  
Wind Chill: 23°   Ceiling: 900
Heat Index: 34°   Visibility: 10mi
Dew Point: 34°   Wind: 17mph
Humidity: 100%   Direction: 100°E
Pressure: 29.49"   Gusts: 23mph
Location:  45.9787°N, 96.4182°W
Report Text: KETH 222116Z AUTO 10015G20KT 10SM -RA OVC009 01/01 A2949 RMK AO2
Loading
Personal Weather Stations






























Interactive Weather Map New forecast layout! Learn more

10-Day Weather Forecast

Advertisements
Track Severe Weather on mobile